Time;durP1;ratioP1;P1;durP2;ratioP2;P2;SDS_P1;SDS_P2;PMS_P1;PMS_P2;Temp;Humidity;BMP_temperature;BMP_pressure;BME280_temperature;BME280_humidity;BME280_pressure;Samples;Min_cycle;Max_cycle;Signal;HPM_P1;HPM_P2
2023/01/31 00:01:47;;;;;;;0.20;0.20;;;;;;;3.06;86.67;99164.06;5094042;28;20044;-68
2023/01/31 00:04:27;;;;;;;0.30;0.30;;;;;;;3.03;86.63;99164.00;5094142;28;20036;-68
2023/01/31 00:07:07;;;;;;;0.30;0.30;;;;;;;2.98;86.88;99165.56;5093856;28;20055;-68
2023/01/31 00:09:46;;;;;;;0.30;0.30;;;;;;;3.06;85.89;99169.13;5093844;28;20040;-68
2023/01/31 00:12:26;;;;;;;0.50;0.50;;;;;;;3.00;85.89;99174.88;5093821;28;20527;-69
2023/01/31 00:15:07;;;;;;;0.52;0.52;;;;;;;3.04;86.55;99185.88;5094048;28;20051;-69
2023/01/31 00:17:47;;;;;;;0.70;0.70;;;;;;;3.05;85.67;99188.41;5093880;28;20379;-68
2023/01/31 00:20:27;;;;;;;0.30;0.30;;;;;;;3.08;86.10;99211.19;5093990;28;20044;-69
2023/01/31 00:23:06;;;;;;;0.30;0.30;;;;;;;3.11;85.41;99208.72;5093703;28;20208;-68
2023/01/31 00:25:46;;;;;;;0.30;0.30;;;;;;;3.09;85.87;99204.47;5094000;28;20040;-68
2023/01/31 00:28:49;;;;;;;0.40;0.40;;;;;;;3.13;85.74;99223.88;5093923;28;20133;-67
2023/01/31 00:31:33;;;;;;;0.40;0.40;;;;;;;3.12;85.13;99215.47;5093658;28;20040;-67
2023/01/31 00:34:13;;;;;;;1.15;1.05;;;;;;;3.12;85.18;99225.53;5093494;28;20076;-67
2023/01/31 00:36:55;;;;;;;0.40;0.40;;;;;;;3.12;85.61;99224.72;5093627;28;20154;-67
2023/01/31 00:39:35;;;;;;;0.30;0.30;;;;;;;3.12;85.80;99235.63;5093501;28;20048;-68
2023/01/31 00:42:04;;;;;;;0.20;0.20;;;;;;;2.98;85.84;99209.28;5093634;28;20398;-67
2023/01/31 00:44:35;;;;;;;0.38;0.38;;;;;;;3.15;85.53;99243.25;5093305;28;20078;-67
2023/01/31 00:47:05;;;;;;;0.20;0.20;;;;;;;3.18;85.62;99237.44;5092374;28;20098;-67
2023/01/31 00:49:33;;;;;;;0.47;0.38;;;;;;;3.16;85.26;99266.81;5093235;28;20081;-69
2023/01/31 00:52:03;;;;;;;;;;;;;;;3.13;85.49;99261.69;5093630;28;20127;-68
2023/01/31 00:54:31;;;;;;;0.40;0.40;;;;;;;3.09;85.66;99259.94;5092430;28;19950;-68
2023/01/31 00:57:00;;;;;;;0.30;0.30;;;;;;;3.08;85.46;99263.25;5093286;28;20090;-68
2023/01/31 00:59:30;;;;;;;0.38;0.38;;;;;;;3.08;85.76;99270.81;5094144;28;20083;-67
2023/01/31 01:02:01;;;;;;;0.30;0.30;;;;;;;3.07;85.56;99267.44;5097071;28;20051;-68
2023/01/31 01:04:30;;;;;;;0.20;0.20;;;;;;;3.05;85.78;99269.09;5096109;28;20063;-68
2023/01/31 01:06:59;;;;;;;0.60;0.60;;;;;;;3.00;85.78;99268.13;5096075;28;20482;-68
2023/01/31 01:09:28;;;;;;;0.30;0.30;;;;;;;2.99;85.54;99283.22;5096890;28;20040;-68
2023/01/31 01:11:57;;;;;;;0.32;0.32;;;;;;;3.00;86.33;99274.84;5096852;28;20318;-69
2023/01/31 01:14:26;;;;;;;0.63;0.63;;;;;;;3.01;85.52;99267.31;5096710;28;20119;-68
2023/01/31 01:16:57;;;;;;;0.75;0.75;;;;;;;3.04;85.91;99271.56;5095598;28;20089;-68
2023/01/31 01:19:27;;;;;;;3.22;1.95;;;;;;;3.01;85.40;99271.50;5095863;28;20440;-68
2023/01/31 01:21:57;;;;;;;0.50;0.50;;;;;;;3.05;85.78;99273.25;5096892;28;20052;-68
2023/01/31 01:24:26;;;;;;;0.35;0.35;;;;;;;3.04;85.19;99286.69;5096907;28;20537;-68
2023/01/31 01:26:56;;;;;;;0.98;0.98;;;;;;;3.04;84.89;99279.13;5096453;28;20044;-68
2023/01/31 01:29:24;;;;;;;0.30;0.30;;;;;;;3.08;85.94;99283.41;5095634;28;20505;-68
2023/01/31 01:31:54;;;;;;;0.55;0.55;;;;;;;3.08;85.01;99281.75;5095250;28;20036;-68
2023/01/31 01:34:23;;;;;;;0.40;0.40;;;;;;;3.10;85.29;99286.81;5078444;28;20514;-67
2023/01/31 01:36:54;;;;;;;0.30;0.30;;;;;;;3.15;85.14;99295.34;5095271;28;20287;-68
2023/01/31 01:39:23;;;;;;;0.38;0.38;;;;;;;3.11;84.90;99299.47;5096230;28;20135;-68
2023/01/31 01:41:52;;;;;;;0.43;0.43;;;;;;;3.08;84.46;99291.84;5095060;28;20131;-68
2023/01/31 01:44:41;;;;;;;0.40;0.40;;;;;;;3.06;84.45;99295.16;5096556;28;20052;-68
2023/01/31 01:47:16;;;;;;;0.35;0.35;;;;;;;3.03;83.94;99302.63;5096280;28;20044;-68
2023/01/31 01:49:49;;;;;;;0.22;0.22;;;;;;;3.06;84.36;99300.19;5096345;28;20391;-68
2023/01/31 01:52:21;;;;;;;0.38;0.38;;;;;;;3.06;83.61;99301.03;5096419;28;20090;-68
2023/01/31 01:54:56;;;;;;;0.30;0.30;;;;;;;3.04;83.49;99305.19;5096088;28;20513;-68
2023/01/31 01:57:29;;;;;;;1.52;1.27;;;;;;;3.01;83.19;99301.75;5094849;28;20055;-68
2023/01/31 02:00:05;;;;;;;0.40;0.40;;;;;;;3.02;84.02;99311.03;5095568;28;20551;-67
2023/01/31 02:02:44;;;;;;;1.05;1.05;;;;;;;3.01;83.39;99311.81;5095892;28;20094;-68
2023/01/31 02:05:16;;;;;;;0.40;0.40;;;;;;;2.99;83.54;99299.19;5094953;28;20537;-68
2023/01/31 02:07:47;;;;;;;0.40;0.40;;;;;;;3.01;82.90;99312.69;5094065;28;20090;-68
2023/01/31 02:10:23;;;;;;;0.65;0.65;;;;;;;3.00;83.10;99320.22;5095513;28;20054;-67
2023/01/31 02:12:53;;;;;;;0.40;0.40;;;;;;;2.98;83.86;99320.16;5095724;28;20505;-67
2023/01/31 02:15:23;;;;;;;0.75;0.75;;;;;;;2.95;83.32;99306.66;5095990;28;20056;-67
2023/01/31 02:17:54;;;;;;;0.43;0.43;;;;;;;2.98;83.00;99321.81;5095712;28;20497;-67
2023/01/31 02:20:33;;;;;;;;;;;;;;;2.94;83.43;99325.09;5094694;28;20036;-67
2023/01/31 02:23:14;;;;;;;;;;;;;;;2.90;83.38;99318.28;5096280;28;19919;-68
2023/01/31 02:26:08;;;;;;;0.57;0.57;;;;;;;2.82;83.47;99319.78;5094408;28;19927;-67
2023/01/31 02:29:01;;;;;;;0.50;0.50;;;;;;;2.83;82.58;99321.50;5095406;28;20075;-67
2023/01/31 02:31:59;;;;;;;0.35;0.35;;;;;;;2.79;82.82;99319.69;5095304;28;20040;-68
2023/01/31 02:34:38;;;;;;;0.77;0.77;;;;;;;2.79;83.05;99329.75;5094095;28;20064;-67
2023/01/31 02:37:22;;;;;;;0.95;0.95;;;;;;;2.72;82.90;99339.72;5095563;28;20405;-67
2023/01/31 02:40:02;;;;;;;0.30;0.30;;;;;;;2.70;82.04;99335.44;5095285;28;20394;-68
2023/01/31 02:42:35;;;;;;;;;;;;;;;2.71;82.39;99332.97;5094306;28;20032;-67
2023/01/31 02:45:12;;;;;;;0.50;0.50;;;;;;;2.67;82.53;99332.84;5095035;28;19919;-67
2023/01/31 02:47:54;;;;;;;1.63;1.52;;;;;;;2.67;81.64;99327.81;5094142;28;20043;-67
2023/01/31 02:50:31;;;;;;;0.30;0.30;;;;;;;2.64;82.42;99318.50;5093711;28;20055;-68
2023/01/31 02:53:06;;;;;;;0.30;0.30;;;;;;;2.66;82.49;99329.47;5093716;28;20066;-68
2023/01/31 02:58:25;;;;;;;0.40;0.40;;;;;;;2.68;81.45;99353.06;5095090;28;20436;-67
2023/01/31 03:00:58;;;;;;;0.45;0.45;;;;;;;2.71;82.46;99353.09;5093426;28;20048;-67
2023/01/31 03:03:30;;;;;;;0.30;0.30;;;;;;;2.73;82.24;99351.47;5093549;28;20044;-68
2023/01/31 03:06:28;;;;;;;0.25;0.25;;;;;;;2.75;81.70;99360.75;5094710;28;20044;-68
2023/01/31 03:09:04;;;;;;;0.77;0.77;;;;;;;2.63;81.52;99333.59;5082214;28;20063;-68
2023/01/31 03:11:42;;;;;;;0.30;0.30;;;;;;;2.82;81.82;99365.13;5094854;28;20070;-68
2023/01/31 03:14:26;;;;;;;0.47;0.47;;;;;;;2.82;81.75;99358.44;5094543;28;20576;-68
2023/01/31 03:19:54;;;;;;;0.50;0.50;;;;;;;2.86;83.13;99382.00;5095463;28;20561;-67
2023/01/31 03:22:28;;;;;;;0.40;0.40;;;;;;;2.84;83.34;99388.69;5092694;28;20056;-67
2023/01/31 03:24:59;;;;;;;0.40;0.40;;;;;;;2.66;83.41;99362.22;5093162;28;20051;-68
2023/01/31 03:27:30;;;;;;;0.40;0.40;;;;;;;2.81;83.30;99388.63;5094414;28;20052;-68
2023/01/31 03:30:05;;;;;;;0.40;0.40;;;;;;;2.77;83.23;99395.25;5094238;28;20047;-68
2023/01/31 03:32:39;;;;;;;0.73;0.73;;;;;;;2.77;83.89;99396.91;5094373;28;20501;-68
2023/01/31 03:35:09;;;;;;;0.65;0.65;;;;;;;2.74;84.52;99400.19;5094234;28;20076;-68
2023/01/31 03:37:45;;;;;;;0.40;0.40;;;;;;;2.72;84.22;99400.16;5094240;28;20044;-68
2023/01/31 03:40:26;;;;;;;0.30;0.30;;;;;;;2.67;85.26;99396.69;5094048;28;20056;-67
2023/01/31 03:43:02;;;;;;;0.50;0.50;;;;;;;2.66;85.66;99394.97;5094308;28;20079;-67
2023/01/31 03:45:38;;;;;;;0.30;0.30;;;;;;;2.64;85.26;99396.59;5094612;28;20048;-68
2023/01/31 03:48:13;;;;;;;0.30;0.30;;;;;;;2.61;85.79;99396.53;5076211;28;20135;-67
2023/01/31 03:50:49;;;;;;;0.32;0.32;;;;;;;2.57;85.39;99392.22;5094510;28;20062;-67
2023/01/31 03:53:25;;;;;;;0.50;0.50;;;;;;;2.52;85.27;99411.38;5092670;28;20521;-67
2023/01/31 03:56:00;;;;;;;0.60;0.60;;;;;;;2.45;85.34;99409.50;5092965;28;20075;-68
2023/01/31 03:58:36;;;;;;;0.50;0.50;;;;;;;2.40;85.56;99395.13;5092890;28;20056;-67
2023/01/31 04:01:08;;;;;;;0.43;0.43;;;;;;;2.35;85.98;99407.56;5092327;28;20044;-67
2023/01/31 04:03:42;;;;;;;0.40;0.40;;;;;;;2.25;86.20;99400.59;5092774;28;20493;-67
2023/01/31 04:06:11;;;;;;;0.40;0.40;;;;;;;2.24;85.80;99393.84;5092591;28;20075;-67
2023/01/31 04:08:42;;;;;;;0.38;0.38;;;;;;;2.23;86.80;99382.03;5092900;28;20101;-67
2023/01/31 04:11:15;;;;;;;0.30;0.30;;;;;;;2.27;86.30;99388.88;5092804;28;20373;-67
2023/01/31 04:13:44;;;;;;;0.40;0.40;;;;;;;2.29;86.83;99387.25;5092381;28;20529;-67
2023/01/31 04:16:13;;;;;;;0.40;0.40;;;;;;;2.34;86.50;99390.75;5093618;28;20040;-67
2023/01/31 04:18:42;;;;;;;0.47;0.47;;;;;;;2.33;86.13;99391.56;5093923;28;20040;-67
2023/01/31 04:21:10;;;;;;;0.40;0.40;;;;;;;2.32;86.76;99404.97;5093506;28;20044;-67
2023/01/31 04:23:39;;;;;;;0.55;0.55;;;;;;;2.31;86.07;99404.91;5093746;28;20379;-67
2023/01/31 04:26:08;;;;;;;0.30;0.30;;;;;;;2.31;86.34;99410.81;5093816;28;20039;-68
2023/01/31 04:28:38;;;;;;;0.30;0.30;;;;;;;2.28;86.16;99415.75;5093483;28;20127;-68
2023/01/31 04:31:07;;;;;;;1.02;1.02;;;;;;;2.29;85.41;99412.44;5093502;28;20141;-67
2023/01/31 04:33:37;;;;;;;0.47;0.47;;;;;;;2.29;85.63;99427.53;5096148;28;20036;-68
2023/01/31 04:36:06;;;;;;;0.70;0.70;;;;;;;2.31;85.94;99427.56;5097781;28;20094;-68
2023/01/31 04:38:35;;;;;;;1.05;1.02;;;;;;;2.32;86.31;99432.69;5097785;28;20532;-68
2023/01/31 04:41:04;;;;;;;0.50;0.50;;;;;;;2.34;85.87;99436.09;5097389;28;20051;-68
2023/01/31 04:43:33;;;;;;;0.40;0.40;;;;;;;2.35;85.40;99437.78;5097427;28;20054;-68
2023/01/31 04:46:04;;;;;;;0.30;0.30;;;;;;;2.21;85.47;99411.38;5097237;28;20067;-68
2023/01/31 04:48:32;;;;;;;0.50;0.50;;;;;;;2.40;85.50;99445.47;5097324;28;20048;-68
2023/01/31 04:51:01;;;;;;;0.90;0.90;;;;;;;2.42;85.22;99448.88;5097549;28;20413;-68
2023/01/31 04:53:30;;;;;;;0.30;0.30;;;;;;;2.41;86.01;99453.06;5097542;28;20113;-68
2023/01/31 04:55:59;;;;;;;2.40;1.52;;;;;;;2.46;86.10;99449.00;5097107;28;20047;-69
2023/01/31 04:58:28;;;;;;;0.40;0.40;;;;;;;2.46;86.05;99455.72;5097432;28;20565;-68
2023/01/31 05:00:57;;;;;;;0.50;0.50;;;;;;;2.48;85.61;99452.41;5096651;28;20055;-68
2023/01/31 05:03:27;;;;;;;0.30;0.30;;;;;;;2.53;85.25;99447.50;5098094;28;20508;-69
2023/01/31 05:05:56;;;;;;;1.05;1.00;;;;;;;2.52;85.20;99455.88;5096979;28;20119;-68
2023/01/31 05:08:25;;;;;;;0.70;0.70;;;;;;;2.52;85.21;99450.84;5097005;28;20067;-68
2023/01/31 05:10:58;;;;;;;0.30;0.30;;;;;;;2.52;84.85;99448.34;5096934;28;20076;-68
2023/01/31 05:13:31;;;;;;;0.40;0.40;;;;;;;2.49;84.36;99444.06;5097226;28;20048;-68
2023/01/31 05:16:00;;;;;;;3.67;1.08;;;;;;;2.52;84.87;99454.19;5097052;28;20048;-68
2023/01/31 05:18:31;;;;;;;0.40;0.40;;;;;;;2.58;84.41;99466.13;5096721;28;20036;-68
2023/01/31 05:21:00;;;;;;;1.15;1.05;;;;;;;2.60;83.22;99459.44;5096700;28;20043;-68
2023/01/31 05:23:29;;;;;;;0.40;0.40;;;;;;;2.59;83.43;99468.66;5096877;28;20066;-68
2023/01/31 05:25:59;;;;;;;0.75;0.75;;;;;;;2.54;82.83;99465.16;5096782;28;20210;-68
2023/01/31 05:28:27;;;;;;;0.30;0.30;;;;;;;2.62;81.98;99481.34;5096610;28;20127;-68
2023/01/31 05:31:03;;;;;;;0.30;0.30;;;;;;;2.61;82.04;99489.72;5096419;28;20272;-68
2023/01/31 05:33:34;;;;;;;0.35;0.35;;;;;;;2.64;81.63;99502.38;5096848;28;20070;-68
2023/01/31 05:36:04;;;;;;;0.70;0.70;;;;;;;2.67;81.43;99507.53;5096490;28;20044;-68
2023/01/31 05:38:33;;;;;;;1.05;1.02;;;;;;;2.66;80.69;99505.81;5096444;28;20034;-68
2023/01/31 05:41:02;;;;;;;0.30;0.30;;;;;;;2.67;80.09;99517.59;5096294;28;20048;-67
2023/01/31 05:43:31;;;;;;;0.40;0.40;;;;;;;2.66;80.26;99520.09;5096387;28;20103;-68
2023/01/31 05:46:00;;;;;;;37.90;1.55;;;;;;;2.67;79.36;99525.16;5095913;28;20433;-67
2023/01/31 05:48:29;;;;;;;0.50;0.50;;;;;;;2.62;79.14;99524.16;5096222;28;20036;-67
2023/01/31 05:50:59;;;;;;;0.40;0.40;;;;;;;2.59;78.55;99529.13;5096133;28;20127;-67
2023/01/31 05:53:28;;;;;;;0.68;0.68;;;;;;;2.58;78.70;99537.50;5096079;28;20048;-67
2023/01/31 05:55:57;;;;;;;0.40;0.40;;;;;;;2.54;78.88;99539.88;5094823;28;20127;-67
2023/01/31 05:58:25;;;;;;;0.30;0.30;;;;;;;2.50;78.22;99541.44;5096186;28;20046;-67
2023/01/31 06:00:56;;;;;;;32.22;1.65;;;;;;;2.45;78.30;99540.47;5095758;28;20525;-67
2023/01/31 06:03:25;;;;;;;0.88;0.80;;;;;;;2.50;78.83;99543.97;5095923;28;20047;-67
2023/01/31 06:05:54;;;;;;;0.40;0.40;;;;;;;2.46;77.80;99547.22;5095898;28;20044;-68
2023/01/31 06:08:24;;;;;;;;;;;;;;;2.46;77.92;99542.19;5096107;28;20047;-68
2023/01/31 06:10:53;;;;;;;0.40;0.40;;;;;;;2.37;77.39;99536.03;5095791;28;20011;-68
2023/01/31 06:13:22;;;;;;;0.50;0.50;;;;;;;2.42;77.13;99549.59;5095698;28;20432;-68
2023/01/31 06:15:51;;;;;;;0.40;0.40;;;;;;;2.42;77.64;99560.53;5095693;28;20277;-67
2023/01/31 06:18:20;;;;;;;0.63;0.63;;;;;;;2.41;77.55;99558.81;5095580;28;20044;-68
2023/01/31 06:20:49;;;;;;;1.75;1.30;;;;;;;2.39;77.39;99552.88;5095467;28;20334;-67
2023/01/31 06:23:18;;;;;;;0.30;0.30;;;;;;;2.42;77.14;99555.50;5095459;28;20048;-68
2023/01/31 06:25:50;;;;;;;2.08;1.58;;;;;;;2.44;76.83;99558.91;5095355;28;20485;-67
2023/01/31 06:28:20;;;;;;;0.60;0.60;;;;;;;2.43;76.85;99562.22;5095374;28;20102;-67
2023/01/31 06:30:49;;;;;;;0.30;0.30;;;;;;;2.40;76.18;99564.66;5095889;28;20452;-67
2023/01/31 06:33:18;;;;;;;;;;;;;;;2.41;76.94;99566.38;5095720;28;20040;-68
2023/01/31 06:35:46;;;;;;;1.27;0.80;;;;;;;2.40;76.84;99567.16;5095120;28;19920;-68
2023/01/31 06:38:15;;;;;;;1.20;1.10;;;;;;;2.37;76.65;99572.16;5095141;28;20043;-68
2023/01/31 06:40:44;;;;;;;1.70;1.57;;;;;;;2.35;76.06;99573.72;5095320;28;20048;-68
2023/01/31 06:43:14;;;;;;;0.50;0.50;;;;;;;2.43;75.57;99589.94;5095025;28;20062;-68
2023/01/31 06:45:44;;;;;;;0.35;0.35;;;;;;;2.48;75.93;99590.06;5095048;28;20288;-68
2023/01/31 06:48:13;;;;;;;0.60;0.60;;;;;;;2.50;75.63;99594.34;5094922;28;20498;-68
2023/01/31 06:50:41;;;;;;;0.50;0.50;;;;;;;2.54;75.85;99606.19;5094949;28;20032;-68
2023/01/31 06:53:10;;;;;;;0.50;0.50;;;;;;;2.58;75.06;99605.50;5094832;28;20040;-68
2023/01/31 06:55:39;;;;;;;1.77;1.67;;;;;;;2.62;75.46;99597.22;5095016;28;20711;-68
2023/01/31 06:58:08;;;;;;;0.40;0.40;;;;;;;2.70;75.18;99608.38;5094684;28;20585;-66
2023/01/31 07:00:38;;;;;;;1.10;1.10;;;;;;;2.71;74.98;99614.28;5094366;28;20047;-67
2023/01/31 07:03:07;;;;;;;4.68;2.15;;;;;;;2.71;75.14;99610.06;5095003;28;20478;-67
2023/01/31 07:05:36;;;;;;;1.83;1.73;;;;;;;2.72;74.20;99621.88;5094555;28;20105;-68
2023/01/31 07:08:05;;;;;;;0.33;0.33;;;;;;;2.76;74.20;99611.91;5094479;28;20078;-67
2023/01/31 07:10:34;;;;;;;0.30;0.30;;;;;;;2.91;74.99;99617.34;5094764;28;20044;-67
2023/01/31 07:13:03;;;;;;;0.50;0.50;;;;;;;3.04;74.38;99609.34;5094541;28;20128;-67
2023/01/31 07:15:32;;;;;;;0.73;0.73;;;;;;;3.14;74.19;99621.38;5094755;28;20039;-68
2023/01/31 07:18:02;;;;;;;0.30;0.30;;;;;;;3.15;74.46;99620.56;5094339;28;20040;-66
2023/01/31 07:20:31;;;;;;;0.60;0.60;;;;;;;3.19;73.57;99625.72;5094442;28;20565;-67
2023/01/31 07:23:00;;;;;;;0.33;0.33;;;;;;;3.22;73.91;99615.72;5094514;28;20076;-67
2023/01/31 07:25:30;;;;;;;1.42;1.33;;;;;;;3.25;73.78;99635.13;5094864;28;20450;-67
2023/01/31 07:28:00;;;;;;;0.40;0.40;;;;;;;3.23;73.68;99636.75;5094128;28;20054;-67
2023/01/31 07:30:29;;;;;;;0.33;0.33;;;;;;;3.21;73.78;99638.41;5094519;28;20085;-67
2023/01/31 07:32:58;;;;;;;0.30;0.30;;;;;;;3.19;73.00;99630.78;5094109;28;20394;-67
2023/01/31 07:35:29;;;;;;;0.60;0.60;;;;;;;3.25;72.89;99641.03;5094106;28;20044;-67
2023/01/31 07:37:58;;;;;;;0.40;0.40;;;;;;;3.29;72.68;99641.97;5094413;28;20064;-67
2023/01/31 07:40:28;;;;;;;1.23;1.13;;;;;;;3.29;73.22;99649.53;5093910;28;20047;-67
2023/01/31 07:42:58;;;;;;;;;;;;;;;3.30;73.25;99661.34;5094644;28;20076;-66
2023/01/31 07:45:27;;;;;;;0.85;0.85;;;;;;;3.34;73.19;99655.56;5093838;28;19924;-67
2023/01/31 07:47:58;;;;;;;0.70;0.70;;;;;;;3.34;73.09;99665.63;5093880;28;20032;-67
2023/01/31 07:50:29;;;;;;;1.50;1.40;;;;;;;3.34;72.69;99670.69;5093876;28;20052;-67
2023/01/31 07:52:58;;;;;;;0.30;0.30;;;;;;;3.34;72.60;99675.72;5093892;28;20123;-67
2023/01/31 07:55:27;;;;;;;0.50;0.50;;;;;;;3.32;72.61;99680.75;5091842;28;20040;-66
2023/01/31 07:57:56;;;;;;;0.50;0.50;;;;;;;3.32;72.74;99683.25;5093996;28;20044;-67
2023/01/31 08:05:46;;;;;;;0.63;0.63;;;;;;;3.30;73.10;99694.97;5094069;28;20044;-67
2023/01/31 08:08:15;;;;;;;0.77;0.77;;;;;;;3.35;73.13;99697.63;5093148;28;20352;-67
2023/01/31 08:10:45;;;;;;;0.60;0.60;;;;;;;3.36;72.69;99699.31;5093631;28;20114;-67
2023/01/31 08:13:14;;;;;;;0.43;0.43;;;;;;;3.34;73.21;99685.81;5093177;28;20127;-70
2023/01/31 08:15:43;;;;;;;0.50;0.50;;;;;;;3.32;72.64;99698.41;5073417;28;20037;-67
2023/01/31 08:18:12;;;;;;;0.98;0.98;;;;;;;3.29;73.01;99699.97;5073771;28;20048;-66
2023/01/31 08:20:43;;;;;;;0.45;0.45;;;;;;;3.39;72.74;99696.88;5073245;28;20120;-67
2023/01/31 08:23:12;;;;;;;0.30;0.30;;;;;;;3.62;72.31;99703.44;5089767;28;20135;-67
2023/01/31 08:25:41;;;;;;;0.90;0.90;;;;;;;3.82;71.60;99702.28;5091631;28;20067;-67
2023/01/31 08:28:10;;;;;;;2.90;1.80;;;;;;;4.05;72.14;99688.56;5093417;28;20086;-67
2023/01/31 08:30:41;;;;;;;0.35;0.35;;;;;;;4.25;71.53;99693.28;5093422;28;20040;-67
2023/01/31 08:33:11;;;;;;;0.30;0.30;;;;;;;4.39;70.97;99686.91;5093200;28;20089;-68
2023/01/31 08:35:40;;;;;;;0.50;0.50;;;;;;;4.55;70.41;99694.88;5093405;28;20040;-68
2023/01/31 08:38:10;;;;;;;0.40;0.40;;;;;;;4.74;69.85;99696.13;5092225;28;20529;-67
2023/01/31 08:40:44;;;;;;;0.50;0.50;;;;;;;4.88;69.18;99704.00;5093579;28;20440;-67
2023/01/31 08:43:14;;;;;;;2.15;1.67;;;;;;;4.97;68.93;99715.19;5093174;28;20059;-68
2023/01/31 08:45:43;;;;;;;0.82;0.82;;;;;;;5.05;68.01;99712.81;5093626;28;20109;-68
2023/01/31 08:48:12;;;;;;;0.40;0.40;;;;;;;5.13;67.66;99706.25;5093407;28;20039;-68
2023/01/31 08:50:41;;;;;;;0.60;0.60;;;;;;;5.28;67.38;99712.47;5093471;28;20046;-67
2023/01/31 08:53:11;;;;;;;3.40;0.50;;;;;;;5.29;66.87;99719.25;5093142;28;20334;-67
2023/01/31 08:55:39;;;;;;;0.52;0.52;;;;;;;5.08;66.19;99723.88;5093181;28;20044;-67
2023/01/31 08:58:08;;;;;;;1.55;0.95;;;;;;;5.02;65.98;99722.88;5093242;28;20498;-67
2023/01/31 09:00:37;;;;;;;6.00;1.80;;;;;;;5.11;66.04;99728.97;5091382;28;20054;-67
2023/01/31 09:03:06;;;;;;;0.35;0.35;;;;;;;5.23;65.67;99733.47;5093066;28;20563;-67
2023/01/31 09:05:35;;;;;;;0.40;0.40;;;;;;;5.34;65.41;99735.41;5093027;28;20097;-67
2023/01/31 09:08:03;;;;;;;0.20;0.20;;;;;;;5.43;65.01;99737.25;5093158;28;20089;-67
2023/01/31 09:10:34;;;;;;;0.40;0.40;;;;;;;5.55;64.78;99741.69;5093153;28;20060;-67
2023/01/31 09:13:03;;;;;;;1.40;1.33;;;;;;;5.61;64.56;99732.56;5093036;28;20046;-66
2023/01/31 09:15:31;;;;;;;0.25;0.25;;;;;;;5.49;64.21;99716.28;5093103;28;20493;-66
2023/01/31 09:18:00;;;;;;;0.20;0.20;;;;;;;5.69;63.88;99740.28;5092897;28;20432;-67
2023/01/31 09:20:29;;;;;;;0.30;0.30;;;;;;;5.75;63.57;99750.56;5095628;28;20075;-67
2023/01/31 09:22:58;;;;;;;0.20;0.20;;;;;;;5.85;63.43;99752.47;5096774;28;20389;-68
2023/01/31 09:25:27;;;;;;;0.28;0.28;;;;;;;6.00;63.04;99737.56;5096566;28;20489;-68
2023/01/31 09:28:15;;;;;;;0.32;0.32;;;;;;;6.17;62.81;99760.69;5081154;28;20035;-68
2023/01/31 09:30:44;;;;;;;0.40;0.40;;;;;;;6.22;62.36;99767.53;5076334;28;20053;-67
2023/01/31 09:33:13;;;;;;;1.03;0.93;;;;;;;6.26;62.13;99766.78;5076076;28;20044;-67
2023/01/31 09:35:42;;;;;;;3.13;1.52;;;;;;;6.18;61.26;99777.56;5075985;28;20036;-67
2023/01/31 09:38:11;;;;;;;0.35;0.35;;;;;;;6.12;61.69;99783.38;5076332;28;20152;-67
2023/01/31 09:40:40;;;;;;;0.20;0.20;;;;;;;6.12;61.50;99785.91;5075961;28;20067;-67
2023/01/31 09:43:12;;;;;;;0.40;0.40;;;;;;;6.19;61.03;99797.84;5076193;28;20053;-68
2023/01/31 09:45:46;;;;;;;0.55;0.55;;;;;;;6.30;61.43;99790.47;5076084;28;20076;-68
2023/01/31 09:48:19;;;;;;;0.30;0.30;;;;;;;6.35;60.90;99787.19;5075906;28;20094;-68
2023/01/31 09:50:54;;;;;;;0.57;0.57;;;;;;;6.37;60.44;99790.59;5075921;28;20050;-67
2023/01/31 09:53:29;;;;;;;0.30;0.30;;;;;;;6.31;59.73;99790.47;5075846;28;20462;-68
2023/01/31 09:56:14;;;;;;;0.35;0.35;;;;;;;6.34;59.99;99789.69;5078849;28;20127;-68
2023/01/31 09:58:54;;;;;;;0.55;0.55;;;;;;;6.55;58.90;99785.84;5095970;28;20048;-66
2023/01/31 10:01:30;;;;;;;0.85;0.85;;;;;;;6.68;59.47;99794.50;5095807;28;20047;-68
2023/01/31 10:04:20;;;;;;;0.40;0.40;;;;;;;6.77;59.16;99788.75;5078432;28;20048;-68
2023/01/31 10:06:57;;;;;;;2.35;2.15;;;;;;;6.89;59.08;99806.66;5087592;28;20048;-66
2023/01/31 10:09:32;;;;;;;3.58;1.33;;;;;;;6.89;57.83;99788.91;5095955;28;20036;-67
2023/01/31 10:12:09;;;;;;;5.00;1.15;;;;;;;7.03;58.35;99795.91;5095700;28;20052;-68
2023/01/31 10:14:49;;;;;;;0.77;0.77;;;;;;;7.09;57.36;99800.22;5095292;28;20047;-67
2023/01/31 10:17:23;;;;;;;0.43;0.43;;;;;;;7.14;56.70;99794.41;5095029;28;20089;-67
2023/01/31 10:19:56;;;;;;;2.60;0.82;;;;;;;7.21;56.60;99790.25;5077044;28;20494;-68
2023/01/31 10:22:37;;;;;;;0.47;0.47;;;;;;;7.36;56.54;99787.94;5077475;28;20047;-68
2023/01/31 10:25:20;;;;;;;1.05;0.98;;;;;;;7.50;56.06;99794.06;5086950;28;20040;-66
2023/01/31 10:27:52;;;;;;;0.20;0.20;;;;;;;7.53;55.95;99798.34;5095627;28;20515;-67
2023/01/31 10:30:25;;;;;;;0.30;0.30;;;;;;;7.47;54.99;99794.00;5095129;28;20091;-67
2023/01/31 10:33:02;;;;;;;0.40;0.40;;;;;;;7.32;54.69;99770.94;5095292;28;20067;-67
2023/01/31 10:35:39;;;;;;;0.40;0.40;;;;;;;7.68;54.40;99801.91;5095254;28;20079;-68
2023/01/31 10:38:18;;;;;;;0.40;0.40;;;;;;;7.48;54.87;99799.94;5095588;28;20067;-67
2023/01/31 10:40:54;;;;;;;2.25;0.85;;;;;;;7.28;54.65;99787.84;5095052;28;20044;-67
2023/01/31 10:43:34;;;;;;;0.30;0.30;;;;;;;7.13;54.52;99801.97;5095581;28;20032;-67
2023/01/31 10:46:10;;;;;;;0.40;0.40;;;;;;;6.93;55.42;99804.25;5095061;28;20443;-67
2023/01/31 10:48:44;;;;;;;2.40;1.83;;;;;;;6.80;55.74;99801.47;5094993;28;20073;-67
2023/01/31 10:51:30;;;;;;;0.60;0.60;;;;;;;6.65;56.64;99802.94;5095617;28;20055;-67
2023/01/31 10:54:21;;;;;;;0.40;0.40;;;;;;;6.44;57.54;99797.50;5094837;28;20051;-68
2023/01/31 10:56:50;;;;;;;1.15;1.00;;;;;;;6.35;58.30;99810.00;5094729;28;20071;-67
2023/01/31 10:59:24;;;;;;;0.33;0.33;;;;;;;6.20;58.76;99797.06;5094625;28;20040;-67
2023/01/31 11:01:53;;;;;;;0.30;0.30;;;;;;;6.09;58.59;99803.59;5095373;28;20036;-67
2023/01/31 11:04:32;;;;;;;0.30;0.30;;;;;;;5.94;58.92;99796.56;5094638;28;20040;-67
2023/01/31 11:07:02;;;;;;;0.38;0.38;;;;;;;5.81;59.43;99806.38;5094980;28;20047;-67
2023/01/31 11:09:34;;;;;;;0.30;0.30;;;;;;;5.65;59.65;99815.34;5093690;28;20056;-67
2023/01/31 11:12:06;;;;;;;0.20;0.20;;;;;;;5.50;60.16;99809.09;5094568;28;20044;-67
2023/01/31 11:14:35;;;;;;;0.38;0.38;;;;;;;5.45;61.02;99811.53;5094552;28;20517;-67
2023/01/31 11:17:07;;;;;;;0.70;0.70;;;;;;;5.33;61.88;99811.25;5094330;28;20440;-68
2023/01/31 11:19:45;;;;;;;1.20;0.93;;;;;;;5.25;62.00;99808.59;5094443;28;20072;-69
2023/01/31 11:22:24;;;;;;;0.38;0.38;;;;;;;5.30;62.09;99799.38;5094373;28;20044;-69
2023/01/31 11:24:53;;;;;;;0.68;0.68;;;;;;;5.34;62.74;99808.78;5094266;28;20044;-69
2023/01/31 11:27:29;;;;;;;0.60;0.60;;;;;;;5.40;62.86;99806.38;5094548;28;20440;-69
2023/01/31 11:30:00;;;;;;;0.57;0.57;;;;;;;5.41;63.19;99800.50;5091945;28;20127;-69
2023/01/31 11:32:33;;;;;;;0.68;0.68;;;;;;;5.56;63.43;99789.00;5094301;28;20071;-69
2023/01/31 11:35:05;;;;;;;0.40;0.40;;;;;;;5.87;63.45;99786.28;5091789;28;20539;-69
2023/01/31 11:37:34;;;;;;;0.43;0.43;;;;;;;6.25;63.40;99790.38;5090088;28;20048;-69
2023/01/31 11:40:20;;;;;;;0.47;0.47;;;;;;;6.34;62.12;99770.28;5087458;28;20040;-68
2023/01/31 11:42:55;;;;;;;0.20;0.20;;;;;;;6.60;61.65;99774.09;5085587;28;20283;-69
2023/01/31 11:45:27;;;;;;;1.90;1.52;;;;;;;6.76;61.39;99772.69;5084264;28;20520;-69
2023/01/31 11:47:59;;;;;;;0.73;0.73;;;;;;;6.95;60.34;99761.13;5083341;28;20044;-69
2023/01/31 11:50:36;;;;;;;0.38;0.38;;;;;;;7.13;58.63;99767.31;5082570;28;20174;-69
2023/01/31 11:53:18;;;;;;;0.40;0.40;;;;;;;6.96;58.77;99763.66;5083265;28;20504;-68
2023/01/31 11:55:49;;;;;;;2.92;0.85;;;;;;;6.80;58.95;99769.34;5094231;28;20498;-67
2023/01/31 11:58:21;;;;;;;0.40;0.40;;;;;;;6.56;59.57;99774.88;5093813;28;20097;-67
2023/01/31 12:00:55;;;;;;;0.30;0.30;;;;;;;6.40;60.83;99780.53;5093801;28;20052;-68
2023/01/31 12:07:02;;;;;;;0.38;0.38;;;;;;;6.32;62.13;99782.06;5093543;28;20496;-67
2023/01/31 12:09:42;;;;;;;0.30;0.30;;;;;;;6.30;62.88;99776.13;5093615;28;20067;-68
2023/01/31 12:12:30;;;;;;;0.52;0.52;;;;;;;6.25;62.05;99775.19;5093540;28;20489;-68
2023/01/31 12:15:03;;;;;;;0.30;0.30;;;;;;;6.51;61.72;99771.41;5092078;28;20040;-69
2023/01/31 12:17:42;;;;;;;0.22;0.22;;;;;;;6.62;62.51;99776.69;5077377;28;20039;-68
2023/01/31 12:20:21;;;;;;;0.30;0.30;;;;;;;6.69;62.60;99774.25;5093552;28;20102;-67
2023/01/31 12:23:08;;;;;;;3.33;0.77;;;;;;;6.66;62.43;99771.69;5090596;28;20136;-68
2023/01/31 12:25:52;;;;;;;0.88;0.73;;;;;;;6.64;62.61;99769.94;5083143;28;20051;-68